createdAt,value
2022-09-20T00:02:28.397Z,98750.91
2022-09-20T00:05:29.891Z,98755.34
2022-09-20T00:08:32.064Z,98750.97
2022-09-20T00:11:34.642Z,98752.78
2022-09-20T00:14:37.772Z,98753.59
2022-09-20T00:17:39.442Z,98753.72
2022-09-20T00:20:44.998Z,98751.09
2022-09-20T00:23:46.841Z,98745.91
2022-09-20T00:26:48.644Z,98754.63
2022-09-20T00:29:51.812Z,98752.03
2022-09-20T00:32:53.383Z,98756.38
2022-09-20T00:35:55.183Z,98761.69
2022-09-20T00:38:56.835Z,98759.97
2022-09-20T00:42:01.686Z,98757.41
2022-09-20T00:45:05.571Z,98760.16
2022-09-20T00:48:12.004Z,98754.88
2022-09-20T00:51:15.822Z,98756.63
2022-09-20T00:54:20.546Z,98760.25
2022-09-20T00:57:22.716Z,98761.13
2022-09-20T01:00:26.480Z,98766.56
2022-09-20T01:03:30.189Z,98764.88
2022-09-20T01:06:32.654Z,98760.50
2022-09-20T01:09:34.256Z,98757.91
2022-09-20T01:12:37.179Z,98758.03
2022-09-20T01:15:40.689Z,98752.84
2022-09-20T01:18:43.666Z,98751.97
2022-09-20T01:21:47.775Z,98755.56
2022-09-20T01:24:56.402Z,98752.97
2022-09-20T01:27:59.403Z,98760.94
2022-09-20T01:31:03.538Z,98755.63
2022-09-20T01:34:09.751Z,98756.56
2022-09-20T01:37:13.627Z,98757.50
2022-09-20T01:40:20.317Z,98761.03
2022-09-20T01:43:29.498Z,98757.44
2022-09-20T01:46:31.921Z,98754.78
2022-09-20T01:49:42.260Z,98764.53
2022-09-20T01:52:57.563Z,98746.91
2022-09-20T01:56:17.720Z,98753.91
2022-09-20T01:59:41.648Z,98757.44
2022-09-20T02:03:13.257Z,98762.75
2022-09-20T02:06:23.374Z,98761.75
2022-09-20T02:09:45.355Z,98758.28
2022-09-20T02:12:55.170Z,98769.78
2022-09-20T02:16:16.560Z,98774.13
2022-09-20T02:19:28.223Z,98771.56
2022-09-20T02:22:39.000Z,98776.91
2022-09-20T02:25:53.153Z,98773.38
2022-09-20T02:29:02.301Z,98771.66
2022-09-20T02:32:12.785Z,98774.31
2022-09-20T02:35:23.285Z,98778.75
2022-09-20T02:38:42.849Z,98779.56
2022-09-20T02:41:53.658Z,98770.72
2022-09-20T02:45:00.892Z,98782.22
2022-09-20T02:48:04.846Z,98779.44
2022-09-20T02:51:14.150Z,98786.44
2022-09-20T02:54:21.464Z,98782.91
2022-09-20T02:57:26.786Z,98787.47
2022-09-20T03:00:34.122Z,98783.06
2022-09-20T03:03:43.471Z,98784.81
2022-09-20T03:06:51.431Z,98783.94
2022-09-20T03:10:00.149Z,98790.06
2022-09-20T03:13:10.646Z,98784.69
2022-09-20T03:16:21.380Z,98786.47
2022-09-20T03:19:33.664Z,98793.53
2022-09-20T03:22:41.112Z,98789.03
2022-09-20T03:25:53.830Z,98793.53
2022-09-20T03:28:59.735Z,98794.34
2022-09-20T03:32:08.986Z,98788.91
2022-09-20T03:35:19.693Z,98793.34
2022-09-20T03:38:31.152Z,98784.50
2022-09-20T03:41:50.733Z,98800.47
2022-09-20T03:45:07.174Z,98790.69
2022-09-20T03:48:34.922Z,98799.59
2022-09-20T03:51:42.098Z,98795.28
2022-09-20T03:55:04.192Z,98804.16
2022-09-20T03:58:31.641Z,98804.13
2022-09-20T04:01:41.391Z,98797.81
2022-09-20T04:04:47.215Z,98797.72
2022-09-20T04:07:56.382Z,98806.50
2022-09-20T04:11:03.679Z,98795.06
2022-09-20T04:14:11.741Z,98798.75
2022-09-20T04:17:23.381Z,98806.72
2022-09-20T04:20:32.509Z,98802.22
2022-09-20T04:23:39.946Z,98808.38
2022-09-20T04:26:45.222Z,98809.19
2022-09-20T04:29:50.633Z,98805.72
2022-09-20T04:32:55.857Z,98812.69
2022-09-20T04:36:24.683Z,98807.44
2022-09-20T04:39:35.732Z,98815.41
2022-09-20T04:43:04.823Z,98818.06
2022-09-20T04:46:27.814Z,98806.56
2022-09-20T04:49:50.249Z,98810.16
2022-09-20T04:53:14.824Z,98818.28
2022-09-20T04:56:31.035Z,98819.16
2022-09-20T04:59:43.618Z,98823.59
2022-09-20T05:03:23.342Z,98828.91
2022-09-20T05:06:45.135Z,98834.13
2022-09-20T05:10:02.862Z,98842.06
2022-09-20T05:13:23.581Z,98844.69
2022-09-20T05:16:31.244Z,98851.66
2022-09-20T05:19:38.008Z,98854.19
2022-09-20T05:23:06.923Z,98853.28
2022-09-20T05:26:20.706Z,98854.13
2022-09-20T05:29:29.093Z,98851.44
2022-09-20T05:32:34.155Z,98855.19
2022-09-20T05:35:41.029Z,98853.56
2022-09-20T05:38:47.820Z,98861.38
2022-09-20T05:41:54.706Z,98865.84
2022-09-20T05:45:04.269Z,98868.50
2022-09-20T05:48:12.027Z,98875.47
2022-09-20T05:51:16.723Z,98877.28
2022-09-20T05:54:25.286Z,98876.38
2022-09-20T05:57:35.642Z,98875.56
2022-09-20T06:00:41.925Z,98877.28
2022-09-20T06:03:45.690Z,98888.84
2022-09-20T06:06:53.669Z,98894.19
2022-09-20T06:10:25.710Z,98887.13
2022-09-20T06:13:41.202Z,98890.59
2022-09-20T06:16:49.226Z,98890.50
2022-09-20T06:19:56.189Z,98897.38
2022-09-20T06:22:59.496Z,98905.47
2022-09-20T06:26:02.509Z,98902.00
2022-09-20T06:29:09.426Z,98906.38
2022-09-20T06:32:16.100Z,98911.59
2022-09-20T06:35:17.622Z,98908.00
2022-09-20T06:38:55.027Z,98912.41
2022-09-20T06:41:58.047Z,98913.34
2022-09-20T06:44:59.663Z,98918.59
2022-09-20T06:48:02.855Z,98918.34
2022-09-20T06:51:05.626Z,98913.78
2022-09-20T06:54:11.483Z,98925.09
2022-09-20T06:57:17.918Z,98926.38
2022-09-20T07:00:19.824Z,98920.94
2022-09-20T07:03:22.869Z,98925.19
2022-09-20T07:06:24.534Z,98929.47
2022-09-20T07:09:26.067Z,98926.00
2022-09-20T07:12:29.424Z,98925.84
2022-09-20T07:15:32.298Z,98929.34
2022-09-20T07:18:35.436Z,98934.66
2022-09-20T07:21:37.078Z,98936.28
2022-09-20T07:24:39.173Z,98944.13
2022-09-20T07:27:40.783Z,98949.47
2022-09-20T07:30:42.989Z,98941.72
2022-09-20T07:33:46.106Z,98949.59
2022-09-20T07:36:47.840Z,98950.34
2022-09-20T07:39:49.972Z,98950.34
2022-09-20T07:42:56.028Z,98951.13
2022-09-20T07:46:04.239Z,98965.34
2022-09-20T07:49:07.744Z,98961.97
2022-09-20T07:52:11.331Z,98965.56
2022-09-20T07:55:12.800Z,98971.59
2022-09-20T07:58:14.518Z,98978.66
2022-09-20T08:01:16.300Z,98969.84
2022-09-20T08:04:19.266Z,98976.00
2022-09-20T08:07:21.164Z,98981.91
2022-09-20T08:10:22.662Z,98988.06
2022-09-20T08:16:47.517Z,98995.09
2022-09-20T08:19:53.048Z,98993.97
2022-09-20T08:23:19.512Z,98981.53
2022-09-20T08:26:20.913Z,98989.19
2022-09-20T08:29:22.523Z,98996.03
2022-09-20T08:32:24.275Z,98998.69
2022-09-20T08:35:29.704Z,99000.25
2022-09-20T08:41:56.755Z,99001.25
2022-09-20T08:44:59.413Z,99007.34
2022-09-20T08:48:05.866Z,99000.16
2022-09-20T08:51:12.616Z,99001.91
2022-09-20T08:54:16.352Z,99005.56
2022-09-20T08:57:20.412Z,99006.31
2022-09-20T09:00:24.297Z,99008.16
2022-09-20T09:03:27.063Z,99011.50
2022-09-20T09:06:30.110Z,99016.72
2022-09-20T09:09:37.626Z,99015.69
2022-09-20T09:12:40.065Z,99013.84
2022-09-20T09:15:43.880Z,99007.22
2022-09-20T09:18:50.151Z,99005.97
2022-09-20T09:21:56.222Z,99010.94
2022-09-20T09:25:20.952Z,99011.00
2022-09-20T09:28:24.883Z,99016.38
2022-09-20T09:31:27.001Z,99021.66
2022-09-20T09:34:29.858Z,99014.63
2022-09-20T09:37:33.431Z,99022.56
2022-09-20T09:40:35.035Z,99025.03
2022-09-20T09:43:37.499Z,99016.03
2022-09-20T09:46:40.304Z,99021.66
2022-09-20T09:49:59.101Z,99019.75
2022-09-20T09:53:10.265Z,99025.81
2022-09-20T09:56:27.520Z,99021.94
2022-09-20T09:59:49.212Z,99017.75
2022-09-20T10:03:01.333Z,99019.44
2022-09-20T10:06:07.736Z,99020.13
2022-09-20T10:09:21.701Z,99023.28
2022-09-20T10:12:37.001Z,99019.63
2022-09-20T10:15:42.025Z,99027.75
2022-09-20T10:18:48.903Z,99029.63
2022-09-20T10:21:56.297Z,99028.84
2022-09-20T10:25:03.709Z,99019.25
2022-09-20T10:28:11.307Z,99022.91
2022-09-20T10:31:21.189Z,99017.72
2022-09-20T10:34:43.599Z,99015.97
2022-09-20T10:37:51.564Z,99015.78
2022-09-20T10:41:22.955Z,99015.41
2022-09-20T10:44:33.866Z,99010.16
2022-09-20T10:47:40.674Z,99005.16
2022-09-20T10:50:45.696Z,99007.63
2022-09-20T10:53:50.725Z,99010.78
2022-09-20T10:57:00.200Z,99001.25
2022-09-20T11:00:04.835Z,99007.81
2022-09-20T11:03:14.213Z,99006.06
2022-09-20T11:06:18.943Z,99013.41
2022-09-20T11:09:23.609Z,99020.69
2022-09-20T11:12:29.939Z,99014.88
2022-09-20T11:15:35.540Z,99029.81
2022-09-20T11:18:40.342Z,99026.41
2022-09-20T11:21:44.978Z,99031.09
2022-09-20T11:24:49.094Z,99030.59
2022-09-20T11:27:54.882Z,99036.56
2022-09-20T11:31:00.985Z,99045.78
2022-09-20T11:34:08.739Z,99047.63
2022-09-20T11:37:10.705Z,99053.03
2022-09-20T11:40:16.113Z,99056.56
2022-09-20T11:43:20.246Z,99041.09
2022-09-20T11:46:24.903Z,99054.31
2022-09-20T11:49:29.394Z,99055.09
2022-09-20T11:52:50.555Z,99044.34
2022-09-20T11:55:59.182Z,99043.41
2022-09-20T11:59:03.887Z,99045.06
2022-09-20T12:02:17.936Z,99040.44
2022-09-20T12:05:25.518Z,99044.50
2022-09-20T12:08:28.401Z,99036.97
2022-09-20T12:11:31.560Z,99035.84
2022-09-20T12:14:34.585Z,99026.91
2022-09-20T12:17:54.894Z,99028.63
2022-09-20T12:21:00.903Z,99031.97
2022-09-20T12:24:20.357Z,99025.75
2022-09-20T12:27:44.963Z,99028.03
2022-09-20T12:30:47.983Z,99024.06
2022-09-20T12:33:57.127Z,99023.81
2022-09-20T12:37:19.770Z,99025.41
2022-09-20T12:40:21.481Z,99022.84
2022-09-20T12:43:23.844Z,99021.00
2022-09-20T12:46:32.475Z,99021.81
2022-09-20T12:49:57.715Z,99021.84
2022-09-20T12:53:03.403Z,99021.94
2022-09-20T12:56:06.298Z,99022.72
2022-09-20T12:59:21.220Z,99024.09
2022-09-20T13:02:43.803Z,99020.28
2022-09-20T13:05:46.754Z,99022.09
2022-09-20T13:08:50.448Z,99027.50
2022-09-20T13:11:54.615Z,99031.94
2022-09-20T13:14:56.333Z,99028.69
2022-09-20T13:18:01.477Z,99030.56
2022-09-20T13:21:07.068Z,99027.06
2022-09-20T13:24:12.277Z,99026.84
2022-09-20T13:27:19.213Z,99027.59
2022-09-20T13:30:22.155Z,99026.41
2022-09-20T13:33:25.587Z,99027.06
2022-09-20T13:36:28.693Z,99032.28
2022-09-20T13:39:36.312Z,99030.31
2022-09-20T13:42:38.125Z,99026.69
2022-09-20T13:45:43.204Z,99027.13
2022-09-20T13:48:48.161Z,99031.72
2022-09-20T13:51:52.802Z,99031.19
2022-09-20T13:54:55.580Z,99033.78
2022-09-20T13:57:59.536Z,99026.28
2022-09-20T14:01:02.499Z,99034.88
2022-09-20T14:04:08.554Z,99035.06
2022-09-20T14:07:10.270Z,99028.78
2022-09-20T14:10:27.078Z,99029.59
2022-09-20T14:13:31.181Z,99038.09
2022-09-20T14:16:34.121Z,99028.59
2022-09-20T14:19:40.789Z,99036.63
2022-09-20T14:22:43.259Z,99040.09
2022-09-20T14:26:04.940Z,99033.09
2022-09-20T14:29:36.967Z,99040.44
2022-09-20T14:32:40.172Z,99046.91
2022-09-20T14:35:48.139Z,99039.09
2022-09-20T14:38:51.589Z,99043.94
2022-09-20T14:41:53.843Z,99045.91
2022-09-20T14:44:55.373Z,99053.06
2022-09-20T14:47:58.599Z,99048.50
2022-09-20T14:51:14.194Z,99045.41
2022-09-20T14:54:23.686Z,99044.66
2022-09-20T14:57:25.496Z,99047.19
2022-09-20T15:00:27.421Z,99053.56
2022-09-20T15:03:31.264Z,99057.88
2022-09-20T15:06:36.375Z,99060.34
2022-09-20T15:09:37.944Z,99063.38
2022-09-20T15:12:41.418Z,99078.56
2022-09-20T15:15:44.758Z,99085.78
2022-09-20T15:18:47.022Z,99096.91
2022-09-20T15:21:54.205Z,99095.13
2022-09-20T15:24:56.466Z,99100.16
2022-09-20T15:27:59.253Z,99098.75
2022-09-20T15:31:02.350Z,99098.41
2022-09-20T15:34:06.696Z,99096.06
2022-09-20T15:37:10.316Z,99095.34
2022-09-20T15:40:13.759Z,99099.03
2022-09-20T15:43:17.112Z,99093.22
2022-09-20T15:46:22.991Z,99093.53
2022-09-20T15:49:24.587Z,99092.63
2022-09-20T15:52:34.392Z,99097.88
2022-09-20T15:55:36.999Z,99093.78
2022-09-20T15:58:38.783Z,99100.91
2022-09-20T16:01:41.257Z,99101.03
2022-09-20T16:04:46.767Z,99098.22
2022-09-20T16:07:51.699Z,99093.72
2022-09-20T16:10:57.564Z,99090.00
2022-09-20T16:14:00.117Z,99099.88
2022-09-20T16:17:01.790Z,99088.41
2022-09-20T16:20:03.833Z,99085.66
2022-09-20T16:23:07.353Z,99088.28
2022-09-20T16:26:17.896Z,99088.28
2022-09-20T16:29:22.020Z,99090.06
2022-09-20T16:32:23.976Z,99096.50
2022-09-20T16:35:25.852Z,99096.50
2022-09-20T16:38:29.271Z,99089.28
2022-09-20T16:41:32.097Z,99095.47
2022-09-20T16:44:34.895Z,99094.53
2022-09-20T16:47:41.106Z,99101.75
2022-09-20T16:50:42.851Z,99100.81
2022-09-20T16:53:46.686Z,99116.69
2022-09-20T16:56:49.749Z,99123.88
2022-09-20T16:59:54.221Z,99120.50
2022-09-20T17:02:56.549Z,99121.69
2022-09-20T17:06:02.627Z,99123.50
2022-09-20T17:09:06.143Z,99118.25
2022-09-20T17:12:09.630Z,99120.09
2022-09-20T17:15:13.286Z,99124.81
2022-09-20T17:18:15.705Z,99123.97
2022-09-20T17:21:17.701Z,99119.69
2022-09-20T17:24:23.036Z,99129.59
2022-09-20T17:27:25.916Z,99131.50
2022-09-20T17:30:28.265Z,99134.28
2022-09-20T17:33:31.460Z,99131.59
2022-09-20T17:36:34.178Z,99138.56
2022-09-20T17:39:38.410Z,99157.28
2022-09-20T17:42:42.035Z,99150.16
2022-09-20T17:45:44.540Z,99143.88
2022-09-20T17:48:50.535Z,99157.34
2022-09-20T17:51:53.121Z,99153.06
2022-09-20T17:54:57.023Z,99156.66
2022-09-20T17:57:58.710Z,99168.25
2022-09-20T18:01:04.730Z,99167.47
2022-09-20T18:04:07.665Z,99171.91
2022-09-20T18:07:09.587Z,99177.38
2022-09-20T18:10:16.196Z,99178.22
2022-09-20T18:13:18.697Z,99176.56
2022-09-20T18:16:21.402Z,99184.56
2022-09-20T18:19:23.197Z,99184.63
2022-09-20T18:22:25.146Z,99189.09
2022-09-20T18:25:29.042Z,99194.53
2022-09-20T18:28:33.380Z,99207.00
2022-09-20T18:31:39.035Z,99208.13
2022-09-20T18:34:41.561Z,99212.94
2022-09-20T18:37:47.337Z,99211.25
2022-09-20T18:40:55.729Z,99209.34
2022-09-20T18:43:57.813Z,99214.72
2022-09-20T18:47:01.420Z,99221.72
2022-09-20T18:50:03.214Z,99223.56
2022-09-20T18:53:05.093Z,99219.09
2022-09-20T18:56:09.511Z,99224.44
2022-09-20T18:59:16.900Z,99227.91
2022-09-20T19:02:42.404Z,99231.50
2022-09-20T19:05:46.656Z,99223.47
2022-09-20T19:08:53.783Z,99219.91
2022-09-20T19:12:00.813Z,99233.31
2022-09-20T19:15:20.244Z,99236.22
2022-09-20T19:18:30.195Z,99227.78
2022-09-20T19:21:37.105Z,99243.25
2022-09-20T19:24:46.975Z,99243.59
2022-09-20T19:27:50.374Z,99242.16
2022-09-20T19:30:52.242Z,99253.00
2022-09-20T19:33:55.165Z,99257.66
2022-09-20T19:37:08.266Z,99256.94
2022-09-20T19:40:20.919Z,99258.03
2022-09-20T19:43:31.375Z,99277.72
2022-09-20T19:46:44.054Z,99276.97
2022-09-20T19:49:50.115Z,99274.50
2022-09-20T19:52:51.861Z,99284.25
2022-09-20T19:55:55.176Z,99282.66
2022-09-20T19:58:58.408Z,99289.72
2022-09-20T20:02:00.489Z,99291.53
2022-09-20T20:05:03.545Z,99291.53
2022-09-20T20:08:14.305Z,99294.09
2022-09-20T20:11:21.073Z,99300.13
2022-09-20T20:14:29.612Z,99295.44
2022-09-20T20:17:38.767Z,99299.00
2022-09-20T20:20:44.490Z,99303.53
2022-09-20T20:23:58.027Z,99300.00
2022-09-20T20:26:59.579Z,99303.38
2022-09-20T20:30:02.516Z,99305.06
2022-09-20T20:33:05.982Z,99301.38
2022-09-20T20:36:09.032Z,99304.91
2022-09-20T20:39:10.709Z,99306.59
2022-09-20T20:42:12.992Z,99310.13
2022-09-20T20:45:16.098Z,99310.16
2022-09-20T20:48:17.653Z,99312.78
2022-09-20T20:51:20.243Z,99311.97
2022-09-20T20:54:21.967Z,99312.03
2022-09-20T20:57:23.811Z,99306.81
2022-09-20T21:00:29.570Z,99317.50
2022-09-20T21:03:31.147Z,99322.72
2022-09-20T21:06:34.495Z,99326.25
2022-09-20T21:09:36.021Z,99327.22
2022-09-20T21:12:37.672Z,99325.53
2022-09-20T21:15:41.604Z,99331.72
2022-09-20T21:18:44.604Z,99334.38
2022-09-20T21:21:47.441Z,99332.59
2022-09-20T21:24:49.231Z,99338.00
2022-09-20T21:27:50.767Z,99340.63
2022-09-20T21:30:58.623Z,99346.00
2022-09-20T21:34:04.218Z,99338.91
2022-09-20T21:37:05.775Z,99342.50
2022-09-20T21:40:07.693Z,99350.44
2022-09-20T21:43:09.296Z,99348.69
2022-09-20T21:46:13.411Z,99353.25
2022-09-20T21:49:15.058Z,99358.88
2022-09-20T21:52:16.635Z,99364.38
2022-09-20T21:55:18.231Z,99366.34
2022-09-20T21:58:19.753Z,99368.28
2022-09-20T22:01:23.708Z,99358.88
2022-09-20T22:04:26.369Z,99364.50
2022-09-20T22:07:28.043Z,99362.63
2022-09-20T22:10:29.853Z,99366.28
2022-09-20T22:13:31.794Z,99361.84
2022-09-20T22:16:35.680Z,99366.03
2022-09-20T22:19:40.438Z,99361.50
2022-09-20T22:22:42.002Z,99360.84
2022-09-20T22:25:43.953Z,99365.41
2022-09-20T22:28:45.566Z,99365.63
2022-09-20T22:31:50.148Z,99362.16
2022-09-20T22:34:51.885Z,99367.50
2022-09-20T22:37:53.390Z,99373.03
2022-09-20T22:40:55.593Z,99361.72
2022-09-20T22:43:57.166Z,99364.53
2022-09-20T22:47:00.101Z,99364.44
2022-09-20T22:50:01.812Z,99357.31
2022-09-20T22:53:12.576Z,99355.66
2022-09-20T22:56:15.326Z,99365.47
2022-09-20T22:59:17.189Z,99359.38
2022-09-20T23:02:20.396Z,99355.09
2022-09-20T23:05:22.196Z,99357.88
2022-09-20T23:08:25.132Z,99356.25
2022-09-20T23:11:27.572Z,99358.13
2022-09-20T23:14:29.253Z,99355.47
2022-09-20T23:17:32.224Z,99364.97
2022-09-20T23:20:33.714Z,99363.56
2022-09-20T23:23:36.633Z,99365.13
2022-09-20T23:26:39.031Z,99361.78
2022-09-20T23:29:40.816Z,99368.94
2022-09-20T23:32:43.803Z,99376.56
2022-09-20T23:35:45.892Z,99369.16
2022-09-20T23:38:48.032Z,99370.75
2022-09-20T23:41:52.390Z,99372.44
2022-09-20T23:44:53.911Z,99375.78
2022-09-20T23:47:56.730Z,99373.09
2022-09-20T23:50:58.564Z,99372.13
2022-09-20T23:54:00.116Z,99374.78
2022-09-20T23:57:01.825Z,99370.31
